sensor_id;sensor_type;location;lat;lon;timestamp;pressure;altitude;pressure_sealevel;temperature;humidity
7109;BME280;29079;41.930;25.558;2023-08-24T00:00:21;99521.47;;;26.01;53.63
7109;BME280;29079;41.930;25.558;2023-08-24T00:03:09;99529.59;;;25.66;53.65
7109;BME280;29079;41.930;25.558;2023-08-24T00:05:57;99525.56;;;25.57;54.27
7109;BME280;29079;41.930;25.558;2023-08-24T00:08:44;99525.41;;;26.05;52.73
7109;BME280;29079;41.930;25.558;2023-08-24T00:11:34;99517.63;;;25.67;53.67
7109;BME280;29079;41.930;25.558;2023-08-24T00:14:21;99515.59;;;25.74;53.42
7109;BME280;29079;41.930;25.558;2023-08-24T00:17:09;99512.06;;;25.85;52.61
7109;BME280;29079;41.930;25.558;2023-08-24T00:19:57;99486.50;;;26.15;53.38
7109;BME280;29079;41.930;25.558;2023-08-24T00:22:45;99508.34;;;26.27;51.86
7109;BME280;29079;41.930;25.558;2023-08-24T00:25:33;99496.72;;;25.72;53.08
7109;BME280;29079;41.930;25.558;2023-08-24T00:28:23;99514.31;;;25.23;54.02
7109;BME280;29079;41.930;25.558;2023-08-24T00:31:11;99514.84;;;25.31;54.22
7109;BME280;29079;41.930;25.558;2023-08-24T00:33:59;99504.22;;;25.23;54.32
7109;BME280;29079;41.930;25.558;2023-08-24T00:36:47;99513.56;;;25.15;54.19
7109;BME280;29079;41.930;25.558;2023-08-24T00:39:35;99516.06;;;24.87;55.09
7109;BME280;29079;41.930;25.558;2023-08-24T00:42:23;99510.97;;;24.90;55.03
7109;BME280;29079;41.930;25.558;2023-08-24T00:45:13;99515.50;;;24.66;55.92
7109;BME280;29079;41.930;25.558;2023-08-24T00:48:01;99479.25;;;24.40;56.32
7109;BME280;29079;41.930;25.558;2023-08-24T00:50:49;99517.75;;;24.50;56.62
7109;BME280;29079;41.930;25.558;2023-08-24T00:53:39;99518.50;;;24.58;56.87
7109;BME280;29079;41.930;25.558;2023-08-24T00:56:27;99517.16;;;24.67;56.57
7109;BME280;29079;41.930;25.558;2023-08-24T00:59:16;99523.63;;;25.15;57.10
7109;BME280;29079;41.930;25.558;2023-08-24T01:02:06;99520.81;;;25.22;55.74
7109;BME280;29079;41.930;25.558;2023-08-24T01:04:54;99523.13;;;24.76;56.64
7109;BME280;29079;41.930;25.558;2023-08-24T01:07:41;99522.97;;;24.33;57.46
7109;BME280;29079;41.930;25.558;2023-08-24T01:10:46;99512.75;;;24.29;57.52
7109;BME280;29079;41.930;25.558;2023-08-24T01:13:41;99512.06;;;24.33;57.24
7109;BME280;29079;41.930;25.558;2023-08-24T01:16:31;99508.41;;;24.40;57.13
7109;BME280;29079;41.930;25.558;2023-08-24T01:19:36;99517.13;;;24.30;57.40
7109;BME280;29079;41.930;25.558;2023-08-24T01:22:32;99512.75;;;24.47;56.73
7109;BME280;29079;41.930;25.558;2023-08-24T01:25:24;99505.25;;;24.43;57.20
7109;BME280;29079;41.930;25.558;2023-08-24T01:28:19;99500.47;;;24.38;57.75
7109;BME280;29079;41.930;25.558;2023-08-24T01:31:08;99502.00;;;24.34;58.23
7109;BME280;29079;41.930;25.558;2023-08-24T01:33:56;99507.00;;;24.37;58.28
7109;BME280;29079;41.930;25.558;2023-08-24T01:36:44;99474.16;;;23.88;59.23
7109;BME280;29079;41.930;25.558;2023-08-24T01:39:40;99504.53;;;24.10;58.93
7109;BME280;29079;41.930;25.558;2023-08-24T01:42:31;99502.66;;;24.11;58.97
7109;BME280;29079;41.930;25.558;2023-08-24T01:45:28;99490.47;;;23.95;59.26
7109;BME280;29079;41.930;25.558;2023-08-24T01:48:17;99495.91;;;23.95;59.68
7109;BME280;29079;41.930;25.558;2023-08-24T01:51:05;99489.69;;;23.88;59.97
7109;BME280;29079;41.930;25.558;2023-08-24T01:53:54;99491.38;;;24.07;59.52
7109;BME280;29079;41.930;25.558;2023-08-24T01:56:44;99477.72;;;23.89;59.71
7109;BME280;29079;41.930;25.558;2023-08-24T01:59:31;99483.75;;;23.65;60.46
7109;BME280;29079;41.930;25.558;2023-08-24T02:02:23;99483.88;;;23.77;60.34
7109;BME280;29079;41.930;25.558;2023-08-24T02:05:11;99480.66;;;23.87;59.97
7109;BME280;29079;41.930;25.558;2023-08-24T02:07:59;99482.34;;;23.81;59.54
7109;BME280;29079;41.930;25.558;2023-08-24T02:10:47;99479.03;;;23.86;59.26
7109;BME280;29079;41.930;25.558;2023-08-24T02:13:35;99487.66;;;23.76;58.95
7109;BME280;29079;41.930;25.558;2023-08-24T02:16:22;99479.22;;;23.59;59.35
7109;BME280;29079;41.930;25.558;2023-08-24T02:19:12;99481.38;;;23.51;60.04
7109;BME280;29079;41.930;25.558;2023-08-24T02:22:00;99485.91;;;23.38;60.49
7109;BME280;29079;41.930;25.558;2023-08-24T02:24:48;99480.16;;;23.46;60.40
7109;BME280;29079;41.930;25.558;2023-08-24T02:27:36;99486.84;;;23.51;60.56
7109;BME280;29079;41.930;25.558;2023-08-24T02:30:24;99475.50;;;23.54;60.03
7109;BME280;29079;41.930;25.558;2023-08-24T02:33:12;99490.88;;;23.67;59.53
7109;BME280;29079;41.930;25.558;2023-08-24T02:36:01;99489.03;;;23.35;60.29
7109;BME280;29079;41.930;25.558;2023-08-24T02:38:49;99483.19;;;23.38;60.12
7109;BME280;29079;41.930;25.558;2023-08-24T02:41:37;99487.91;;;23.18;60.84
7109;BME280;29079;41.930;25.558;2023-08-24T02:44:26;99485.03;;;23.38;60.40
7109;BME280;29079;41.930;25.558;2023-08-24T02:47:14;99485.16;;;23.50;59.84
7109;BME280;29079;41.930;25.558;2023-08-24T02:50:02;99481.88;;;23.41;60.04
7109;BME280;29079;41.930;25.558;2023-08-24T02:52:51;99480.94;;;23.28;60.86
7109;BME280;29079;41.930;25.558;2023-08-24T02:55:39;99484.38;;;23.17;60.99
7109;BME280;29079;41.930;25.558;2023-08-24T02:58:28;99485.00;;;23.44;60.19
7109;BME280;29079;41.930;25.558;2023-08-24T03:01:16;99486.06;;;23.43;60.11
7109;BME280;29079;41.930;25.558;2023-08-24T03:04:03;99490.00;;;23.22;60.59
7109;BME280;29079;41.930;25.558;2023-08-24T03:06:51;99488.16;;;23.09;61.34
7109;BME280;29079;41.930;25.558;2023-08-24T03:09:40;99494.19;;;23.18;60.95
7109;BME280;29079;41.930;25.558;2023-08-24T03:12:28;99493.72;;;22.89;62.44
7109;BME280;29079;41.930;25.558;2023-08-24T03:15:16;99490.41;;;23.19;61.31
7109;BME280;29079;41.930;25.558;2023-08-24T03:18:04;99490.63;;;22.79;62.04
7109;BME280;29079;41.930;25.558;2023-08-24T03:20:52;99488.88;;;22.91;62.04
7109;BME280;29079;41.930;25.558;2023-08-24T03:23:40;99496.03;;;22.86;62.04
7109;BME280;29079;41.930;25.558;2023-08-24T03:26:29;99498.56;;;22.81;62.24
7109;BME280;29079;41.930;25.558;2023-08-24T03:29:16;99493.31;;;22.86;62.11
7109;BME280;29079;41.930;25.558;2023-08-24T03:32:04;99496.59;;;22.94;61.90
7109;BME280;29079;41.930;25.558;2023-08-24T03:34:54;99496.91;;;22.80;61.95
7109;BME280;29079;41.930;25.558;2023-08-24T03:37:45;99501.84;;;22.96;61.74
7109;BME280;29079;41.930;25.558;2023-08-24T03:40:34;99471.84;;;22.71;61.76
7109;BME280;29079;41.930;25.558;2023-08-24T03:43:23;99505.72;;;22.75;62.51
7109;BME280;29079;41.930;25.558;2023-08-24T03:46:11;99501.16;;;22.62;63.17
7109;BME280;29079;41.930;25.558;2023-08-24T03:48:59;99511.59;;;22.65;63.47
7109;BME280;29079;41.930;25.558;2023-08-24T03:51:48;99520.84;;;22.64;63.65
7109;BME280;29079;41.930;25.558;2023-08-24T03:54:36;99524.00;;;22.54;63.84
7109;BME280;29079;41.930;25.558;2023-08-24T03:57:24;99498.94;;;22.39;64.00
7109;BME280;29079;41.930;25.558;2023-08-24T04:00:14;99528.63;;;22.47;63.73
7109;BME280;29079;41.930;25.558;2023-08-24T04:03:01;99526.31;;;22.51;63.76
7109;BME280;29079;41.930;25.558;2023-08-24T04:05:50;99526.53;;;22.49;63.83
7109;BME280;29079;41.930;25.558;2023-08-24T04:08:37;99530.31;;;22.35;63.75
7109;BME280;29079;41.930;25.558;2023-08-24T04:11:26;99523.56;;;22.64;62.99
7109;BME280;29079;41.930;25.558;2023-08-24T04:14:13;99522.53;;;22.52;63.22
7109;BME280;29079;41.930;25.558;2023-08-24T04:17:02;99518.75;;;22.59;62.91
7109;BME280;29079;41.930;25.558;2023-08-24T04:19:50;99520.09;;;22.37;63.78
7109;BME280;29079;41.930;25.558;2023-08-24T04:22:38;99522.53;;;22.52;63.52
7109;BME280;29079;41.930;25.558;2023-08-24T04:25:27;99521.53;;;22.46;63.69
7109;BME280;29079;41.930;25.558;2023-08-24T04:28:15;99525.63;;;22.62;63.04
7109;BME280;29079;41.930;25.558;2023-08-24T04:31:03;99534.09;;;22.40;63.49
7109;BME280;29079;41.930;25.558;2023-08-24T04:33:53;99531.28;;;22.60;63.02
7109;BME280;29079;41.930;25.558;2023-08-24T04:36:41;99527.97;;;22.58;63.00
7109;BME280;29079;41.930;25.558;2023-08-24T04:39:28;99530.81;;;22.77;63.04
7109;BME280;29079;41.930;25.558;2023-08-24T04:42:17;99527.03;;;22.78;62.72
7109;BME280;29079;41.930;25.558;2023-08-24T04:45:05;99521.38;;;22.80;62.75
7109;BME280;29079;41.930;25.558;2023-08-24T04:47:54;99531.94;;;22.56;63.66
7109;BME280;29079;41.930;25.558;2023-08-24T04:50:43;99536.41;;;22.89;62.71
7109;BME280;29079;41.930;25.558;2023-08-24T04:53:33;99539.31;;;22.94;62.46
7109;BME280;29079;41.930;25.558;2023-08-24T04:56:20;99531.00;;;22.82;62.50
7109;BME280;29079;41.930;25.558;2023-08-24T04:59:08;99526.91;;;23.05;62.25
7109;BME280;29079;41.930;25.558;2023-08-24T05:01:57;99526.44;;;23.21;61.53
7109;BME280;29079;41.930;25.558;2023-08-24T05:04:45;99528.97;;;23.09;61.76
7109;BME280;29079;41.930;25.558;2023-08-24T05:07:37;99536.09;;;23.10;61.56
7109;BME280;29079;41.930;25.558;2023-08-24T05:10:25;99532.00;;;23.33;60.88
7109;BME280;29079;41.930;25.558;2023-08-24T05:13:13;99528.56;;;23.44;60.44
7109;BME280;29079;41.930;25.558;2023-08-24T05:16:01;99531.19;;;23.58;60.02
7109;BME280;29079;41.930;25.558;2023-08-24T05:18:49;99520.19;;;23.71;60.33
7109;BME280;29079;41.930;25.558;2023-08-24T05:21:37;99502.97;;;23.77;59.96
7109;BME280;29079;41.930;25.558;2023-08-24T05:24:27;99526.97;;;24.12;59.53
7109;BME280;29079;41.930;25.558;2023-08-24T05:27:15;99528.63;;;24.13;59.97
7109;BME280;29079;41.930;25.558;2023-08-24T05:30:03;99543.69;;;24.16;59.50
7109;BME280;29079;41.930;25.558;2023-08-24T05:32:52;99541.69;;;24.30;59.38
7109;BME280;29079;41.930;25.558;2023-08-24T05:35:39;99533.91;;;24.71;58.52
7109;BME280;29079;41.930;25.558;2023-08-24T05:38:27;99530.13;;;25.02;57.24
7109;BME280;29079;41.930;25.558;2023-08-24T05:41:17;99533.03;;;24.89;57.36
7109;BME280;29079;41.930;25.558;2023-08-24T05:44:05;99535.00;;;25.00;57.99
7109;BME280;29079;41.930;25.558;2023-08-24T05:46:53;99542.97;;;25.13;58.02
7109;BME280;29079;41.930;25.558;2023-08-24T05:49:41;99539.78;;;25.16;58.30
7109;BME280;29079;41.930;25.558;2023-08-24T05:52:28;99530.22;;;25.26;58.51
7109;BME280;29079;41.930;25.558;2023-08-24T05:55:17;99533.88;;;25.62;57.09
7109;BME280;29079;41.930;25.558;2023-08-24T05:58:06;99539.72;;;25.89;55.70
7109;BME280;29079;41.930;25.558;2023-08-24T06:00:57;99528.94;;;25.94;55.92
7109;BME280;29079;41.930;25.558;2023-08-24T06:03:46;99538.22;;;26.17;55.26
7109;BME280;29079;41.930;25.558;2023-08-24T06:06:33;99531.56;;;26.24;54.23
7109;BME280;29079;41.930;25.558;2023-08-24T06:09:21;99525.09;;;26.42;53.57
7109;BME280;29079;41.930;25.558;2023-08-24T06:12:10;99529.75;;;26.42;53.70
7109;BME280;29079;41.930;25.558;2023-08-24T06:14:59;99529.94;;;26.64;53.38
7109;BME280;29079;41.930;25.558;2023-08-24T06:17:50;99528.75;;;26.72;52.58
7109;BME280;29079;41.930;25.558;2023-08-24T06:20:38;99535.03;;;26.84;52.90
7109;BME280;29079;41.930;25.558;2023-08-24T06:23:26;99534.47;;;26.70;52.31
7109;BME280;29079;41.930;25.558;2023-08-24T06:26:14;99533.47;;;26.88;52.05
7109;BME280;29079;41.930;25.558;2023-08-24T06:29:02;99533.72;;;26.87;52.28
7109;BME280;29079;41.930;25.558;2023-08-24T06:31:51;99532.34;;;27.01;52.06
7109;BME280;29079;41.930;25.558;2023-08-24T06:34:39;99539.59;;;27.24;51.24
7109;BME280;29079;41.930;25.558;2023-08-24T06:37:27;99531.75;;;27.28;51.36
7109;BME280;29079;41.930;25.558;2023-08-24T06:40:15;99539.00;;;27.34;51.24
7109;BME280;29079;41.930;25.558;2023-08-24T06:43:04;99540.03;;;27.33;50.39
7109;BME280;29079;41.930;25.558;2023-08-24T06:45:51;99525.50;;;27.33;50.22
7109;BME280;29079;41.930;25.558;2023-08-24T06:48:40;99539.84;;;27.52;49.30
7109;BME280;29079;41.930;25.558;2023-08-24T06:51:30;99540.78;;;27.57;49.76
7109;BME280;29079;41.930;25.558;2023-08-24T06:54:18;99540.19;;;27.55;49.14
7109;BME280;29079;41.930;25.558;2023-08-24T06:57:06;99544.53;;;27.68;49.61
7109;BME280;29079;41.930;25.558;2023-08-24T06:59:54;99550.34;;;27.72;49.69
7109;BME280;29079;41.930;25.558;2023-08-24T07:02:42;99547.69;;;27.77;48.75
7109;BME280;29079;41.930;25.558;2023-08-24T07:05:31;99547.19;;;27.80;48.66
7109;BME280;29079;41.930;25.558;2023-08-24T07:08:21;99543.94;;;27.83;48.34
7109;BME280;29079;41.930;25.558;2023-08-24T07:11:09;99545.09;;;28.04;48.42
7109;BME280;29079;41.930;25.558;2023-08-24T07:13:57;99544.53;;;28.02;47.93
7109;BME280;29079;41.930;25.558;2023-08-24T07:16:45;99541.13;;;28.12;47.33
7109;BME280;29079;41.930;25.558;2023-08-24T07:19:33;99535.69;;;28.17;47.04
7109;BME280;29079;41.930;25.558;2023-08-24T07:22:22;99542.44;;;28.26;47.13
7109;BME280;29079;41.930;25.558;2023-08-24T07:25:10;99542.06;;;28.40;46.76
7109;BME280;29079;41.930;25.558;2023-08-24T07:27:59;99543.78;;;28.46;46.46
7109;BME280;29079;41.930;25.558;2023-08-24T07:30:49;99532.94;;;28.56;46.34
7109;BME280;29079;41.930;25.558;2023-08-24T07:33:41;99540.06;;;28.74;46.50
7109;BME280;29079;41.930;25.558;2023-08-24T07:36:30;99543.16;;;28.61;46.25
7109;BME280;29079;41.930;25.558;2023-08-24T07:39:20;99538.22;;;28.80;45.52
7109;BME280;29079;41.930;25.558;2023-08-24T07:42:08;99533.00;;;28.83;45.85
7109;BME280;29079;41.930;25.558;2023-08-24T07:44:56;99535.00;;;28.88;44.58
7109;BME280;29079;41.930;25.558;2023-08-24T07:47:44;99540.03;;;28.96;45.71
7109;BME280;29079;41.930;25.558;2023-08-24T07:50:32;99538.63;;;28.94;45.72
7109;BME280;29079;41.930;25.558;2023-08-24T07:53:20;99539.25;;;29.01;45.05
7109;BME280;29079;41.930;25.558;2023-08-24T07:56:09;99542.63;;;29.08;45.45
7109;BME280;29079;41.930;25.558;2023-08-24T07:58:57;99544.66;;;29.18;44.97
7109;BME280;29079;41.930;25.558;2023-08-24T08:01:45;99547.09;;;29.37;45.42
7109;BME280;29079;41.930;25.558;2023-08-24T08:04:33;99547.28;;;29.30;45.13
7109;BME280;29079;41.930;25.558;2023-08-24T08:07:21;99545.50;;;29.46;44.42
7109;BME280;29079;41.930;25.558;2023-08-24T08:10:10;99552.44;;;29.53;44.26
7109;BME280;29079;41.930;25.558;2023-08-24T08:12:59;99543.00;;;29.77;44.22
7109;BME280;29079;41.930;25.558;2023-08-24T08:15:47;99550.13;;;29.73;43.12
7109;BME280;29079;41.930;25.558;2023-08-24T08:18:36;99523.88;;;29.55;43.72
7109;BME280;29079;41.930;25.558;2023-08-24T08:21:23;99545.13;;;29.97;42.75
7109;BME280;29079;41.930;25.558;2023-08-24T08:24:11;99536.59;;;29.98;43.25
7109;BME280;29079;41.930;25.558;2023-08-24T08:27:10;99533.25;;;29.91;42.80
7109;BME280;29079;41.930;25.558;2023-08-24T08:29:59;99466.75;;;29.62;42.82
7109;BME280;29079;41.930;25.558;2023-08-24T08:32:47;99532.84;;;30.15;42.95
7109;BME280;29079;41.930;25.558;2023-08-24T08:35:38;99528.78;;;30.28;41.83
7109;BME280;29079;41.930;25.558;2023-08-24T08:38:28;99532.28;;;30.13;42.83
7109;BME280;29079;41.930;25.558;2023-08-24T08:41:17;99531.03;;;30.36;41.51
7109;BME280;29079;41.930;25.558;2023-08-24T08:44:10;99514.75;;;30.29;41.83
7109;BME280;29079;41.930;25.558;2023-08-24T08:47:01;99509.03;;;30.36;42.20
7109;BME280;29079;41.930;25.558;2023-08-24T08:49:50;99518.81;;;30.59;41.69
7109;BME280;29079;41.930;25.558;2023-08-24T08:52:39;99519.66;;;30.70;40.92
7109;BME280;29079;41.930;25.558;2023-08-24T08:55:27;99515.06;;;30.91;40.60
7109;BME280;29079;41.930;25.558;2023-08-24T08:58:16;99510.09;;;30.88;40.50
7109;BME280;29079;41.930;25.558;2023-08-24T09:01:06;99507.94;;;31.11;40.04
7109;BME280;29079;41.930;25.558;2023-08-24T09:03:57;99508.97;;;30.89;40.64
7109;BME280;29079;41.930;25.558;2023-08-24T09:06:44;99511.00;;;31.19;39.66
7109;BME280;29079;41.930;25.558;2023-08-24T09:09:33;99509.34;;;31.08;39.90
7109;BME280;29079;41.930;25.558;2023-08-24T09:12:21;99506.88;;;31.22;39.93
7109;BME280;29079;41.930;25.558;2023-08-24T09:15:10;99499.41;;;31.22;39.58
7109;BME280;29079;41.930;25.558;2023-08-24T09:18:04;99482.59;;;31.14;40.03
7109;BME280;29079;41.930;25.558;2023-08-24T09:20:53;99487.31;;;31.39;40.21
7109;BME280;29079;41.930;25.558;2023-08-24T09:23:43;99481.53;;;31.30;39.99
7109;BME280;29079;41.930;25.558;2023-08-24T09:26:33;99466.06;;;31.29;40.09
7109;BME280;29079;41.930;25.558;2023-08-24T09:29:22;99479.31;;;31.37;39.89
7109;BME280;29079;41.930;25.558;2023-08-24T09:32:09;99474.09;;;31.56;38.82
7109;BME280;29079;41.930;25.558;2023-08-24T09:35:02;99473.28;;;31.61;38.77
7109;BME280;29079;41.930;25.558;2023-08-24T09:37:53;99465.81;;;31.46;38.57
7109;BME280;29079;41.930;25.558;2023-08-24T09:40:45;99462.50;;;31.44;39.35
7109;BME280;29079;41.930;25.558;2023-08-24T09:43:34;99462.75;;;31.53;39.20
7109;BME280;29079;41.930;25.558;2023-08-24T09:46:24;99462.75;;;31.53;38.66
7109;BME280;29079;41.930;25.558;2023-08-24T09:49:12;99468.81;;;31.86;36.96
7109;BME280;29079;41.930;25.558;2023-08-24T09:52:00;99457.81;;;31.65;38.44
7109;BME280;29079;41.930;25.558;2023-08-24T09:54:51;99454.50;;;31.79;37.51
7109;BME280;29079;41.930;25.558;2023-08-24T09:57:40;99454.22;;;31.75;37.23
7109;BME280;29079;41.930;25.558;2023-08-24T10:00:29;99453.91;;;31.92;37.71
7109;BME280;29079;41.930;25.558;2023-08-24T10:03:19;99441.19;;;31.96;37.92
7109;BME280;29079;41.930;25.558;2023-08-24T10:06:10;99206.56;;;30.70;36.75
7109;BME280;29079;41.930;25.558;2023-08-24T10:09:02;99438.63;;;32.25;37.57
7109;BME280;29079;41.930;25.558;2023-08-24T10:11:56;99435.81;;;32.41;37.19
7109;BME280;29079;41.930;25.558;2023-08-24T10:14:51;99433.44;;;32.19;37.39
7109;BME280;29079;41.930;25.558;2023-08-24T10:17:41;99428.41;;;32.31;36.99
7109;BME280;29079;41.930;25.558;2023-08-24T10:20:30;99427.88;;;32.24;37.62
7109;BME280;29079;41.930;25.558;2023-08-24T10:23:19;99421.16;;;32.45;36.26
7109;BME280;29079;41.930;25.558;2023-08-24T10:26:07;99402.78;;;32.20;36.89
7109;BME280;29079;41.930;25.558;2023-08-24T10:28:58;99363.88;;;32.22;36.16
7109;BME280;29079;41.930;25.558;2023-08-24T10:31:48;99411.41;;;32.63;35.26
7109;BME280;29079;41.930;25.558;2023-08-24T10:34:37;99402.97;;;32.39;36.93
7109;BME280;29079;41.930;25.558;2023-08-24T10:37:25;99365.72;;;32.37;36.43
7109;BME280;29079;41.930;25.558;2023-08-24T10:40:14;99384.16;;;32.91;35.54
7109;BME280;29079;41.930;25.558;2023-08-24T10:43:18;99392.59;;;33.05;35.34
7109;BME280;29079;41.930;25.558;2023-08-24T10:46:13;99371.38;;;32.56;36.27
7109;BME280;29079;41.930;25.558;2023-08-24T10:49:04;99350.81;;;32.77;35.00
7109;BME280;29079;41.930;25.558;2023-08-24T10:51:52;99378.88;;;32.95;35.69
7109;BME280;29079;41.930;25.558;2023-08-24T10:54:42;99379.25;;;32.83;34.97
7109;BME280;29079;41.930;25.558;2023-08-24T10:57:35;99372.06;;;33.17;34.61
7109;BME280;29079;41.930;25.558;2023-08-24T11:00:27;99352.81;;;33.06;35.40
7109;BME280;29079;41.930;25.558;2023-08-24T11:03:30;99360.63;;;33.28;34.79
7109;BME280;29079;41.930;25.558;2023-08-24T11:06:20;99355.84;;;33.05;35.83
7109;BME280;29079;41.930;25.558;2023-08-24T11:09:09;99350.91;;;33.36;35.12
7109;BME280;29079;41.930;25.558;2023-08-24T11:12:02;99350.75;;;33.17;35.29
7109;BME280;29079;41.930;25.558;2023-08-24T11:14:52;99343.81;;;33.25;34.43
7109;BME280;29079;41.930;25.558;2023-08-24T11:17:45;99348.19;;;33.31;35.21
7109;BME280;29079;41.930;25.558;2023-08-24T11:20:35;99337.78;;;33.18;34.40
7109;BME280;29079;41.930;25.558;2023-08-24T11:23:24;99335.53;;;33.25;34.63
7109;BME280;29079;41.930;25.558;2023-08-24T11:26:13;99325.88;;;33.22;34.39
7109;BME280;29079;41.930;25.558;2023-08-24T11:29:04;99262.19;;;32.74;34.09
7109;BME280;29079;41.930;25.558;2023-08-24T11:31:52;99315.22;;;33.05;35.87
7109;BME280;29079;41.930;25.558;2023-08-24T11:34:40;99308.72;;;33.20;34.66
7109;BME280;29079;41.930;25.558;2023-08-24T11:37:29;99304.59;;;33.18;35.16
7109;BME280;29079;41.930;25.558;2023-08-24T11:40:18;99295.91;;;33.35;34.53
7109;BME280;29079;41.930;25.558;2023-08-24T11:43:06;99228.44;;;33.06;34.86
7109;BME280;29079;41.930;25.558;2023-08-24T11:45:55;99290.59;;;33.38;34.97
7109;BME280;29079;41.930;25.558;2023-08-24T11:48:43;99290.25;;;33.45;36.05
7109;BME280;29079;41.930;25.558;2023-08-24T11:51:31;99286.94;;;33.43;34.94
7109;BME280;29079;41.930;25.558;2023-08-24T11:54:32;99285.25;;;33.47;34.88
7109;BME280;29079;41.930;25.558;2023-08-24T11:57:20;99271.66;;;33.26;35.22
7109;BME280;29079;41.930;25.558;2023-08-24T12:00:08;99279.81;;;33.37;35.34
7109;BME280;29079;41.930;25.558;2023-08-24T12:03:00;99264.84;;;33.13;34.91
7109;BME280;29079;41.930;25.558;2023-08-24T12:05:48;99271.34;;;33.28;34.90
7109;BME280;29079;41.930;25.558;2023-08-24T12:08:37;99255.75;;;33.37;36.85
7109;BME280;29079;41.930;25.558;2023-08-24T12:11:26;99261.41;;;33.27;36.50
7109;BME280;29079;41.930;25.558;2023-08-24T12:14:17;99251.13;;;33.32;35.55
7109;BME280;29079;41.930;25.558;2023-08-24T12:17:06;99257.22;;;33.29;34.45
7109;BME280;29079;41.930;25.558;2023-08-24T12:19:58;99248.66;;;33.31;34.95
7109;BME280;29079;41.930;25.558;2023-08-24T12:22:54;99238.53;;;33.45;34.54
7109;BME280;29079;41.930;25.558;2023-08-24T12:25:43;99243.88;;;33.37;35.98
7109;BME280;29079;41.930;25.558;2023-08-24T12:28:32;99224.75;;;33.40;36.75
7109;BME280;29079;41.930;25.558;2023-08-24T12:31:20;99237.53;;;33.79;34.76
7109;BME280;29079;41.930;25.558;2023-08-24T12:34:08;99236.41;;;33.37;37.95
7109;BME280;29079;41.930;25.558;2023-08-24T12:36:58;99219.22;;;33.40;35.39
7109;BME280;29079;41.930;25.558;2023-08-24T12:39:49;99222.50;;;33.66;35.73
7109;BME280;29079;41.930;25.558;2023-08-24T12:42:37;99203.94;;;33.48;35.18
7109;BME280;29079;41.930;25.558;2023-08-24T12:45:26;99218.53;;;33.29;34.80
7109;BME280;29079;41.930;25.558;2023-08-24T12:48:14;99219.81;;;33.37;34.34
7109;BME280;29079;41.930;25.558;2023-08-24T12:51:03;99208.38;;;33.20;36.42
7109;BME280;29079;41.930;25.558;2023-08-24T12:53:51;99151.03;;;33.06;35.08
7109;BME280;29079;41.930;25.558;2023-08-24T12:56:39;99206.06;;;33.32;37.57
7109;BME280;29079;41.930;25.558;2023-08-24T12:59:27;99193.53;;;33.59;35.09
7109;BME280;29079;41.930;25.558;2023-08-24T13:02:16;99191.38;;;33.56;33.47
7109;BME280;29079;41.930;25.558;2023-08-24T13:05:23;99198.78;;;33.60;33.53
7109;BME280;29079;41.930;25.558;2023-08-24T13:08:10;99187.41;;;33.62;33.63
7109;BME280;29079;41.930;25.558;2023-08-24T13:10:58;99184.19;;;33.55;33.91
7109;BME280;29079;41.930;25.558;2023-08-24T13:13:47;99178.88;;;33.39;34.22
7109;BME280;29079;41.930;25.558;2023-08-24T13:16:35;99179.38;;;33.41;34.41
7109;BME280;29079;41.930;25.558;2023-08-24T13:19:24;99172.50;;;33.39;33.92
7109;BME280;29079;41.930;25.558;2023-08-24T13:22:12;99166.34;;;33.23;33.83
7109;BME280;29079;41.930;25.558;2023-08-24T13:25:00;99162.00;;;33.41;34.18
7109;BME280;29079;41.930;25.558;2023-08-24T13:27:47;99166.25;;;33.52;34.96
7109;BME280;29079;41.930;25.558;2023-08-24T13:30:36;99170.97;;;33.71;32.84
7109;BME280;29079;41.930;25.558;2023-08-24T13:33:24;99165.09;;;33.77;33.63
7109;BME280;29079;41.930;25.558;2023-08-24T13:36:13;99166.56;;;33.70;33.27
7109;BME280;29079;41.930;25.558;2023-08-24T13:39:01;99163.13;;;33.59;33.35
7109;BME280;29079;41.930;25.558;2023-08-24T13:41:51;99163.66;;;33.61;33.57
7109;BME280;29079;41.930;25.558;2023-08-24T13:44:39;99167.81;;;33.82;34.39
7109;BME280;29079;41.930;25.558;2023-08-24T13:47:27;99163.38;;;33.81;34.21
7109;BME280;29079;41.930;25.558;2023-08-24T13:50:15;99162.34;;;33.77;35.94
7109;BME280;29079;41.930;25.558;2023-08-24T13:53:04;99160.06;;;33.79;34.03
7109;BME280;29079;41.930;25.558;2023-08-24T13:55:52;99151.78;;;33.79;33.47
7109;BME280;29079;41.930;25.558;2023-08-24T13:58:43;99121.31;;;33.41;35.04
7109;BME280;29079;41.930;25.558;2023-08-24T14:01:34;99168.47;;;33.74;37.33
7109;BME280;29079;41.930;25.558;2023-08-24T14:04:22;99174.56;;;33.71;38.03
7109;BME280;29079;41.930;25.558;2023-08-24T14:07:10;99171.19;;;33.55;37.63
7109;BME280;29079;41.930;25.558;2023-08-24T14:10:02;99168.91;;;33.81;36.10
7109;BME280;29079;41.930;25.558;2023-08-24T14:12:52;99165.03;;;33.82;38.30
7109;BME280;29079;41.930;25.558;2023-08-24T14:15:43;99156.69;;;33.63;33.67
7109;BME280;29079;41.930;25.558;2023-08-24T14:18:31;99158.03;;;33.66;33.84
7109;BME280;29079;41.930;25.558;2023-08-24T14:21:19;99160.59;;;33.62;34.67
7109;BME280;29079;41.930;25.558;2023-08-24T14:24:22;99159.81;;;33.38;34.77
7109;BME280;29079;41.930;25.558;2023-08-24T14:27:14;99165.41;;;33.32;35.21
7109;BME280;29079;41.930;25.558;2023-08-24T14:30:02;99177.00;;;33.35;36.33
7109;BME280;29079;41.930;25.558;2023-08-24T14:32:50;99259.97;;;33.35;36.69
7109;BME280;29079;41.930;25.558;2023-08-24T14:35:38;99253.16;;;31.73;50.24
7109;BME280;29079;41.930;25.558;2023-08-24T14:38:26;99328.69;;;30.13;62.47
7109;BME280;29079;41.930;25.558;2023-08-24T14:41:14;99245.41;;;28.09;70.71
7109;BME280;29079;41.930;25.558;2023-08-24T14:44:04;99298.00;;;27.61;73.60
7109;BME280;29079;41.930;25.558;2023-08-24T14:46:51;99324.97;;;26.97;78.37
7109;BME280;29079;41.930;25.558;2023-08-24T14:49:40;99358.56;;;26.75;77.30
7109;BME280;29079;41.930;25.558;2023-08-24T14:52:28;99387.34;;;24.90;78.33
7109;BME280;29079;41.930;25.558;2023-08-24T14:55:16;99303.78;;;23.05;95.14